Observation data for Abernathy on 03/10/2018      Previous  Date  Next       Current Mesonet Observations  Soil Data  Daily Summary Page  Observations in Plain Language
KARS 100600Z 08005KT 08/M10 A2984 RMK A01 T00761097  RH  028%=      5-min Rain = 0
KARS 100605Z 08005KT 08/M10 A2984 RMK A01 T00761096  RH  028%=      5-min Rain = 0
KARS 100610Z 08005KT 08/M10 A2984 RMK A01 T00771098  RH  028%=      5-min Rain = 0
KARS 100615Z 08005KT 08/M10 A2984 RMK A01 T00771099  RH  027%=      5-min Rain = 0
KARS 100620Z 07005KT 08/M10 A2983 RMK A01 T00781100  RH  027%=      5-min Rain = 0
KARS 100625Z 07005KT 08/M10 A2983 RMK A01 T00771097  RH  028%=      5-min Rain = 0
KARS 100630Z 08005KT 08/M10 A2983 RMK A01 T00771096  RH  028%=      5-min Rain = 0
KARS 100635Z 07005KT 08/M10 A2982 RMK A01 T00761096  RH  028%=      5-min Rain = 0
KARS 100640Z 07005KT 07/M10 A2982 RMK A01 T00741096  RH  029%=      5-min Rain = 0
KARS 100645Z 07005KT 07/M09 A2982 RMK A01 T00721094  RH  030%=      5-min Rain = 0
KARS 100650Z 07004KT 07/M09 A2983 RMK A01 T00691094  RH  030%=      5-min Rain = 0
KARS 100655Z 07003KT 06/M09 A2983 RMK A01 T00631092  RH  032%=      5-min Rain = 0
KARS 100700Z 07002KT 06/M09 A2983 RMK A01 T00611092  RH  032%=      5-min Rain = 0
KARS 100705Z 07002KT 06/M09 A2983 RMK A01 T00571089  RH  034%=      5-min Rain = 0
KARS 100710Z 07002KT 06/M09 A2983 RMK A01 T00561088  RH  034%=      5-min Rain = 0
KARS 100715Z 08003KT 05/M09 A2983 RMK A01 T00541087  RH  035%=      5-min Rain = 0
KARS 100720Z 08003KT 06/M08 A2983 RMK A01 T00581084  RH  035%=      5-min Rain = 0
KARS 100725Z 08003KT 07/M09 A2983 RMK A01 T00651085  RH  033%=      5-min Rain = 0
KARS 100730Z 09003KT 07/M09 A2983 RMK A01 T00671086  RH  033%=      5-min Rain = 0
KARS 100735Z 10003KT 07/M09 A2983 RMK A01 T00651087  RH  033%=      5-min Rain = 0
KARS 100740Z 11004KT 06/M09 A2983 RMK A01 T00641087  RH  033%=      5-min Rain = 0
KARS 100745Z 10005KT 06/M09 A2982 RMK A01 T00641085  RH  034%=      5-min Rain = 0
KARS 100750Z 09005KT 07/M08 A2982 RMK A01 T00691083  RH  033%=      5-min Rain = 0
KARS 100755Z 10005KT 07/M09 A2982 RMK A01 T00701085  RH  032%=      5-min Rain = 0
KARS 100800Z 10005KT 07/M09 A2982 RMK A01 T00661085  RH  033%=      5-min Rain = 0
KARS 100805Z 10004KT 06/M08 A2982 RMK A01 T00641084  RH  034%=      5-min Rain = 0
KARS 100810Z 10005KT 06/M08 A2982 RMK A01 T00601083  RH  035%=      5-min Rain = 0
KARS 100815Z 11004KT 06/M08 A2981 RMK A01 T00561082  RH  036%=      5-min Rain = 0
KARS 100820Z 11004KT 06/M08 A2981 RMK A01 T00571081  RH  036%=      5-min Rain = 0
KARS 100825Z 10005KT 06/M08 A2981 RMK A01 T00581080  RH  036%=      5-min Rain = 0
KARS 100830Z 11004KT 06/M08 A2981 RMK A01 T00601078  RH  036%=      5-min Rain = 0
KARS 100835Z 11004KT 06/M08 A2981 RMK A01 T00641077  RH  036%=      5-min Rain = 0
KARS 100840Z 13004KT 07/M08 A298 RMK A01 T00651076  RH  036%=      5-min Rain = 0
KARS 100845Z 14004KT 06/M08 A298 RMK A01 T00641077  RH  036%=      5-min Rain = 0
KARS 100850Z 16004KT 05/M07 A298 RMK A01 T00541072  RH  040%=      5-min Rain = 0
KARS 100855Z 16005KT 05/M07 A298 RMK A01 T00461072  RH  042%=      5-min Rain = 0
KARS 100900Z 17005KT 04/M07 A298 RMK A01 T00411073  RH  043%=      5-min Rain = 0
KARS 100905Z 18005KT 04/M07 A298 RMK A01 T00381069  RH  045%=      5-min Rain = 0
KARS 100910Z 19006KT 04/M07 A298 RMK A01 T00391065  RH  047%=      5-min Rain = 0
KARS 100915Z 20007KT 04/M06 A298 RMK A01 T00401062  RH  048%=      5-min Rain = 0
KARS 100920Z 20008KT 04/M06 A2979 RMK A01 T00431063  RH  046%=      5-min Rain = 0
KARS 100925Z 21008KT 05/M07 A2979 RMK A01 T00451066  RH  044%=      5-min Rain = 0
KARS 100930Z 22009KT 04/M07 A298 RMK A01 T00421071  RH  044%=      5-min Rain = 0
KARS 100935Z 23008KT 04/M08 A2979 RMK A01 T00421078  RH  041%=      5-min Rain = 0
KARS 100940Z 23008KT 04/M08 A2979 RMK A01 T00431078  RH  041%=      5-min Rain = 0
KARS 100945Z 24007KT 05/M08 A2979 RMK A01 T00461076  RH  041%=      5-min Rain = 0
KARS 100950Z 24007KT 05/M08 A298 RMK A01 T00461077  RH  041%=      5-min Rain = 0
KARS 100955Z 24007KT 05/M08 A298 RMK A01 T00451075  RH  041%=      5-min Rain = 0
KARS 101000Z 25009KT 05/M07 A298 RMK A01 T00501073  RH  041%=      5-min Rain = 0
KARS 101005Z 26008KT 05/M07 A298 RMK A01 T00531069  RH  041%=      5-min Rain = 0
KARS 101010Z 27007KT 05/M06 A298 RMK A01 T00481064  RH  044%=      5-min Rain = 0
KARS 101015Z 27008KT 04/M06 A298 RMK A01 T00441062  RH  046%=      5-min Rain = 0
KARS 101020Z 27008KT 05/M06 A2981 RMK A01 T00451062  RH  046%=      5-min Rain = 0
KARS 101025Z 27008KT 05/M06 A2981 RMK A01 T00471062  RH  045%=      5-min Rain = 0
KARS 101030Z 28007KT 05/M06 A2981 RMK A01 T00471062  RH  045%=      5-min Rain = 0
KARS 101035Z 28006KT 05/M07 A2981 RMK A01 T00461065  RH  044%=      5-min Rain = 0
KARS 101040Z 28007KT 05/M07 A2981 RMK A01 T00451068  RH  044%=      5-min Rain = 0
KARS 101045Z 28007KT 05/M07 A2981 RMK A01 T00461070  RH  043%=      5-min Rain = 0
KARS 101050Z 28008KT 05/M07 A2981 RMK A01 T00471072  RH  042%=      5-min Rain = 0
KARS 101055Z 29008KT 05/M07 A2981 RMK A01 T00481072  RH  041%=      5-min Rain = 0
KARS 101100Z 28008KT 05/M07 A2981 RMK A01 T00471073  RH  041%=      5-min Rain = 0
KARS 101105Z 28009KT 05/M07 A2981 RMK A01 T00451072  RH  042%=      5-min Rain = 0
KARS 101110Z 28008KT 04/M07 A2981 RMK A01 T00431070  RH  043%=      5-min Rain = 0
KARS 101115Z 28008KT 04/M07 A2981 RMK A01 T00431069  RH  044%=      5-min Rain = 0
KARS 101120Z 28007KT 04/M07 A2981 RMK A01 T00421071  RH  044%=      5-min Rain = 0
KARS 101125Z 28007KT 04/M07 A2981 RMK A01 T00421071  RH  044%=      5-min Rain = 0
KARS 101130Z 28007KT 04/M07 A2981 RMK A01 T00411071  RH  044%=      5-min Rain = 0
KARS 101135Z 28006KT 04/M07 A2981 RMK A01 T00401071  RH  044%=      5-min Rain = 0
KARS 101140Z 28006KT 04/M07 A2981 RMK A01 T00391071  RH  045%=      5-min Rain = 0
KARS 101145Z 27007KT 04/M07 A2981 RMK A01 T00381068  RH  046%=      5-min Rain = 0
KARS 101150Z 28007KT 04/M07 A2981 RMK A01 T00371067  RH  046%=      5-min Rain = 0
KARS 101155Z 28006KT 04/M07 A2981 RMK A01 T00371069  RH  046%=      5-min Rain = 0
KARS 101200Z 29006KT 04/M07 A2981 RMK A01 T00401069  RH  045%=      5-min Rain = 0
KARS 101205Z 29006KT 04/M07 A2981 RMK A01 T00411068  RH  045%=      5-min Rain = 0
KARS 101210Z 30007KT 04/M07 A2981 RMK A01 T00401068  RH  045%=      5-min Rain = 0
KARS 101215Z 30008KT 04/M07 A2982 RMK A01 T00401070  RH  045%=      5-min Rain = 0
KARS 101220Z 30008KT 04/M07 A2982 RMK A01 T00381070  RH  045%=      5-min Rain = 0
KARS 101225Z 30008KT 04/M07 A2982 RMK A01 T00361071  RH  045%=      5-min Rain = 0
KARS 101230Z 30008KT 04/M07 A2982 RMK A01 T00361073  RH  045%=      5-min Rain = 0
KARS 101235Z 30007KT 04/M07 A2982 RMK A01 T00361074  RH  044%=      5-min Rain = 0
KARS 101240Z 30008KT 04/M08 A2982 RMK A01 T00361076  RH  044%=      5-min Rain = 0
KARS 101245Z 29007KT 04/M08 A2982 RMK A01 T00371077  RH  043%=      5-min Rain = 0
KARS 101250Z 29007KT 03/M08 A2982 RMK A01 T00331075  RH  045%=      5-min Rain = 0
KARS 101255Z 29008KT 03/M07 A2982 RMK A01 T00321071  RH  047%=      5-min Rain = 0
KARS 101300Z 28008KT 03/M07 A2982 RMK A01 T00331071  RH  047%=      5-min Rain = 0
KARS 101305Z 28008KT 03/M07 A2982 RMK A01 T00331070  RH  047%=      5-min Rain = 0
KARS 101310Z 29007KT 04/M07 A2982 RMK A01 T00351070  RH  046%=      5-min Rain = 0
KARS 101315Z 29007KT 04/M07 A2982 RMK A01 T00361070  RH  046%=      5-min Rain = 0
KARS 101320Z 28007KT 04/M07 A2982 RMK A01 T00351069  RH  046%=      5-min Rain = 0
KARS 101325Z 29007KT 04/M07 A2983 RMK A01 T00371067  RH  047%=      5-min Rain = 0
KARS 101330Z 29008KT 04/M07 A2983 RMK A01 T00421067  RH  045%=      5-min Rain = 0
KARS 101335Z 29008KT 05/M07 A2983 RMK A01 T00491068  RH  042%=      5-min Rain = 0
KARS 101340Z 29008KT 05/M07 A2983 RMK A01 T00511070  RH  041%=      5-min Rain = 0
KARS 101345Z 29009KT 05/M07 A2983 RMK A01 T00541069  RH  041%=      5-min Rain = 0
KARS 101350Z 29008KT 06/M07 A2983 RMK A01 T00621068  RH  039%=      5-min Rain = 0
KARS 101355Z 29007KT 07/M07 A2983 RMK A01 T00701068  RH  037%=      5-min Rain = 0
KARS 101400Z 29008KT 07/M07 A2983 RMK A01 T00741067  RH  036%=      5-min Rain = 0
KARS 101405Z 29008KT 08/M07 A2983 RMK A01 T00801068  RH  034%=      5-min Rain = 0
KARS 101410Z 30007KT 09/M07 A2983 RMK A01 T00861068  RH  033%=      5-min Rain = 0
KARS 101415Z 29006KT 09/M07 A2983 RMK A01 T00921066  RH  032%=      5-min Rain = 0
KARS 101420Z 29008KT 10/M07 A2983 RMK A01 T00971066  RH  031%=      5-min Rain = 0
KARS 101425Z 28008KT 10/M06 A2983 RMK A01 T01001064  RH  031%=      5-min Rain = 0
KARS 101430Z 28008KT 10/M06 A2983 RMK A01 T01041062  RH  031%=      5-min Rain = 0
KARS 101435Z 28010KT 11/M06 A2983 RMK A01 T01121062  RH  029%=      5-min Rain = 0
KARS 101440Z 28010KT 12/M06 A2983 RMK A01 T01181061  RH  028%=      5-min Rain = 0
KARS 101445Z 27010KT 12/M06 A2983 RMK A01 T01211059  RH  028%=      5-min Rain = 0
KARS 101450Z 27011KT 13/M06 A2983 RMK A01 T01281058  RH  027%=      5-min Rain = 0
KARS 101455Z 27011KT 13/M06 A2983 RMK A01 T01321061  RH  026%=      5-min Rain = 0
KARS 101500Z 27013KT 13/M07 A2983 RMK A01 T01311067  RH  025%=      5-min Rain = 0
KARS 101505Z 27012KT 13/M07 A2983 RMK A01 T01321066  RH  025%=      5-min Rain = 0
KARS 101510Z 28012KT 14/M07 A2983 RMK A01 T01381065  RH  024%=      5-min Rain = 0
KARS 101515Z 28011KT 13/M07 A2983 RMK A01 T01341066  RH  024%=      5-min Rain = 0
KARS 101520Z 28011KT 14/M06 A2983 RMK A01 T01391061  RH  024%=      5-min Rain = 0
KARS 101525Z 28013KT 15/M06 A2983 RMK A01 T01471063  RH  023%=      5-min Rain = 0
KARS 101530Z 28012KT 15/M07 A2983 RMK A01 T01511066  RH  022%=      5-min Rain = 0
KARS 101535Z 29012KT 16/M07 A2983 RMK A01 T01621070  RH  020%=      5-min Rain = 0
KARS 101540Z 28012KT 17/M07 A2983 RMK A01 T01691071  RH  019%=      5-min Rain = 0
KARS 101545Z 28012KT 18/M08 A2983 RMK A01 T01761082  RH  016%=      5-min Rain = 0
KARS 101550Z 28012KT 18/M09 A2983 RMK A01 T01801088  RH  015%=      5-min Rain = 0
KARS 101555Z 29013KT 18/M09 A2983 RMK A01 T01831094  RH  014%=      5-min Rain = 0
KARS 101600Z 30012KT 19/M09 A2983 RMK A01 T01881094  RH  014%=      5-min Rain = 0
KARS 101605Z 29011KT 19/M09 A2983 RMK A01 T01941091  RH  014%=      5-min Rain = 0
KARS 101610Z 30012KT 20/M09 A2983 RMK A01 T02001093  RH  013%=      5-min Rain = 0
KARS 101615Z 30014KT 21/M10 A2983 RMK A01 T02081095  RH  012%=      5-min Rain = 0
KARS 101620Z 31015KT 21/M10 A2983 RMK A01 T02121097  RH  012%=      5-min Rain = 0
KARS 101625Z 30014KT 22/M10 A2983 RMK A01 T02151096  RH  011%=      5-min Rain = 0
KARS 101630Z 30015KT 22/M10 A2983 RMK A01 T02161100  RH  011%=      5-min Rain = 0
KARS 101635Z 30015KT 22/M10 A2983 RMK A01 T02171103  RH  011%=      5-min Rain = 0
KARS 101640Z 31014KT 22/M10 A2983 RMK A01 T02181101  RH  011%=      5-min Rain = 0
KARS 101645Z 31014G19KT 22/M10 A2983 RMK A01 T02221101  RH  011%=      5-min Rain = 0
KARS 101650Z 31015KT 23/M10 A2983 RMK A01 T02251103  RH  010%=      5-min Rain = 0
KARS 101655Z 31014KT 23/M10 A2983 RMK A01 T02281101  RH  010%=      5-min Rain = 0
KARS 101700Z 31012KT 23/M10 A2983 RMK A01 T02311099  RH  010%=      5-min Rain = 0
KARS 101705Z 31013G18KT 23/M10 A2983 RMK A01 T02321098  RH  010%=      5-min Rain = 0
KARS 101710Z 32014KT 23/M10 A2983 RMK A01 T02331104  RH  010%=      5-min Rain = 0
KARS 101715Z 31012G17KT 24/M10 A2983 RMK A01 T02351103  RH  010%=      5-min Rain = 0
KARS 101720Z 32013G20KT 24/M11 A2983 RMK A01 T02401110  RH  009%=      5-min Rain = 0
KARS 101725Z 32013G18KT 24/M12 A2983 RMK A01 T02431116  RH  008%=      5-min Rain = 0
KARS 101730Z 32014G19KT 25/M13 A2983 RMK A01 T02471126  RH  007%=      5-min Rain = 0
KARS 101735Z 32017G22KT 25/M13 A2983 RMK A01 T02471128  RH  007%=      5-min Rain = 0
KARS 101740Z 34015G22KT 25/M13 A2983 RMK A01 T02461125  RH  008%=      5-min Rain = 0
KARS 101745Z 32014KT 25/M12 A2983 RMK A01 T02461123  RH  008%=      5-min Rain = 0
KARS 101750Z 33015KT 25/M12 A2983 RMK A01 T02481120  RH  008%=      5-min Rain = 0
KARS 101755Z 33014KT 25/M11 A2983 RMK A01 T02491113  RH  008%=      5-min Rain = 0
KARS 101800Z 31015KT 25/M12 A2983 RMK A01 T02491115  RH  008%=      5-min Rain = 0
KARS 101805Z 31014G21KT 25/M11 A2983 RMK A01 T02491112  RH  008%=      5-min Rain = 0
KARS 101810Z 32016G21KT 25/M12 A2982 RMK A01 T02501115  RH  008%=      5-min Rain = 0
KARS 101815Z 34014KT 25/M12 A2982 RMK A01 T02531115  RH  008%=      5-min Rain = 0
KARS 101820Z 33016G21KT 25/M12 A2982 RMK A01 T02531117  RH  008%=      5-min Rain = 0
KARS 101825Z 32013KT 25/M12 A2982 RMK A01 T02511121  RH  008%=      5-min Rain = 0
KARS 101830Z 32013KT 25/M12 A2982 RMK A01 T02511120  RH  008%=      5-min Rain = 0
KARS 101835Z 32014G20KT 25/M12 A2982 RMK A01 T02541124  RH  007%=      5-min Rain = 0
KARS 101840Z 32012G19KT 25/M13 A2982 RMK A01 T02521127  RH  007%=      5-min Rain = 0
KARS 101845Z 29012G19KT 25/M12 A2982 RMK A01 T02531121  RH  007%=      5-min Rain = 0
KARS 101850Z 31013G19KT 25/M12 A2982 RMK A01 T02541122  RH  007%=      5-min Rain = 0
KARS 101855Z 29011KT 26/M12 A2981 RMK A01 T02551124  RH  007%=      5-min Rain = 0
KARS 101900Z 31010KT 26/M12 A2981 RMK A01 T02571120  RH  007%=      5-min Rain = 0
KARS 101905Z 33010G15KT 25/M12 A2981 RMK A01 T02541120  RH  007%=      5-min Rain = 0
KARS 101910Z 32008G17KT 25/M12 A2981 RMK A01 T02531121  RH  007%=      5-min Rain = 0
KARS 101915Z 28011G18KT 25/M12 A298 RMK A01 T02541122  RH  007%=      5-min Rain = 0
KARS 101920Z 29008G14KT 26/M12 A298 RMK A01 T02561123  RH  007%=      5-min Rain = 0
KARS 101925Z 31012KT 26/M12 A2979 RMK A01 T02601122  RH  007%=      5-min Rain = 0
KARS 101930Z 32012G17KT 26/M13 A2979 RMK A01 T02611125  RH  007%=      5-min Rain = 0
KARS 101935Z 29010G15KT 26/M13 A2979 RMK A01 T02581128  RH  007%=      5-min Rain = 0
KARS 101940Z 31006KT 26/M13 A2979 RMK A01 T02591128  RH  007%=      5-min Rain = 0
KARS 101945Z 34007G14KT 26/M13 A2978 RMK A01 T02601130  RH  007%=      5-min Rain = 0
KARS 101950Z 32013G24KT 26/M13 A2978 RMK A01 T02611132  RH  007%=      5-min Rain = 0
KARS 101955Z 30010G16KT 26/M14 A2978 RMK A01 T02601136  RH  006%=      5-min Rain = 0
KARS 102000Z 29011G17KT 26/M14 A2978 RMK A01 T02591136  RH  006%=      5-min Rain = 0
KARS 102005Z 32008KT 26/M14 A2977 RMK A01 T02581135  RH  006%=      5-min Rain = 0
KARS 102010Z 33007G12KT 26/M13 A2977 RMK A01 T02581133  RH  007%=      5-min Rain = 0
KARS 102015Z 30006G11KT 26/M13 A2977 RMK A01 T02591133  RH  007%=      5-min Rain = 0
KARS 102020Z 32011G19KT 26/M13 A2977 RMK A01 T02611130  RH  007%=      5-min Rain = 0
KARS 102025Z 33010G16KT 26/M13 A2977 RMK A01 T02611131  RH  007%=      5-min Rain = 0
KARS 102030Z 01006G11KT 26/M13 A2976 RMK A01 T02581132  RH  007%=      5-min Rain = 0
KARS 102035Z 33003KT 26/M13 A2976 RMK A01 T02591128  RH  007%=      5-min Rain = 0
KARS 102040Z 30009G20KT 27/M13 A2976 RMK A01 T02651126  RH  007%=      5-min Rain = 0
KARS 102045Z 29015KT 27/M13 A2976 RMK A01 T02661126  RH  007%=      5-min Rain = 0
KARS 102050Z 31009G15KT 26/M13 A2976 RMK A01 T02641127  RH  007%=      5-min Rain = 0
KARS 102055Z 29007G13KT 26/M13 A2976 RMK A01 T02641129  RH  007%=      5-min Rain = 0
KARS 102100Z 30015G21KT 27/M13 A2976 RMK A01 T02671126  RH  007%=      5-min Rain = 0
KARS 102105Z 30011G20KT 26/M13 A2976 RMK A01 T02641125  RH  007%=      5-min Rain = 0
KARS 102110Z 30013G21KT 27/M13 A2976 RMK A01 T02661128  RH  007%=      5-min Rain = 0
KARS 102115Z 31014G19KT 27/M13 A2976 RMK A01 T02671127  RH  007%=      5-min Rain = 0
KARS 102120Z 31009KT 27/M13 A2976 RMK A01 T02661127  RH  007%=      5-min Rain = 0
KARS 102125Z 28008G14KT 27/M12 A2976 RMK A01 T02681124  RH  007%=      5-min Rain = 0
KARS 102130Z 29011G18KT 27/M13 A2976 RMK A01 T02651125  RH  007%=      5-min Rain = 0
KARS 102135Z 29011G17KT 27/M13 A2976 RMK A01 T02651126  RH  007%=      5-min Rain = 0
KARS 102140Z 30010G16KT 27/M13 A2976 RMK A01 T02661125  RH  007%=      5-min Rain = 0
KARS 102145Z 31008KT 27/M12 A2975 RMK A01 T02651122  RH  007%=      5-min Rain = 0
KARS 102150Z 29013KT 27/M12 A2975 RMK A01 T02681120  RH  007%=      5-min Rain = 0
KARS 102155Z 28015G20KT 27/M13 A2975 RMK A01 T02661125  RH  007%=      5-min Rain = 0
KARS 102200Z 29011G17KT 27/M13 A2975 RMK A01 T02681126  RH  007%=      5-min Rain = 0
KARS 102205Z 31014G21KT 27/M12 A2975 RMK A01 T02661124  RH  007%=      5-min Rain = 0
KARS 102210Z 31010G16KT 26/M12 A2975 RMK A01 T02641122  RH  007%=      5-min Rain = 0
KARS 102215Z 30010KT 26/M12 A2975 RMK A01 T02641121  RH  007%=      5-min Rain = 0
KARS 102220Z 28006KT 26/M12 A2975 RMK A01 T02621119  RH  007%=      5-min Rain = 0
KARS 102225Z 28009G15KT 26/M12 A2975 RMK A01 T02611115  RH  007%=      5-min Rain = 0
KARS 102230Z 28012KT 26/M11 A2975 RMK A01 T02591114  RH  008%=      5-min Rain = 0
KARS 102235Z 29012KT 26/M12 A2975 RMK A01 T02581115  RH  008%=      5-min Rain = 0
KARS 102240Z 30013G18KT 26/M12 A2975 RMK A01 T02581116  RH  008%=      5-min Rain = 0
KARS 102245Z 29013KT 26/M11 A2976 RMK A01 T02581113  RH  008%=      5-min Rain = 0
KARS 102250Z 29010G15KT 26/M11 A2976 RMK A01 T02571113  RH  008%=      5-min Rain = 0
KARS 102255Z 30008G13KT 26/M11 A2976 RMK A01 T02571112  RH  008%=      5-min Rain = 0
KARS 102300Z 29010KT 26/M11 A2976 RMK A01 T02561110  RH  008%=      5-min Rain = 0
KARS 102305Z 30011KT 25/M11 A2976 RMK A01 T02541111  RH  008%=      5-min Rain = 0
KARS 102310Z 30009KT 25/M12 A2977 RMK A01 T02521116  RH  008%=      5-min Rain = 0
KARS 102315Z 27008KT 25/M10 A2976 RMK A01 T02511102  RH  009%=      5-min Rain = 0
KARS 102320Z 27012KT 25/M10 A2976 RMK A01 T02491102  RH  009%=      5-min Rain = 0
KARS 102325Z 27010KT 25/M10 A2976 RMK A01 T02491103  RH  009%=      5-min Rain = 0
KARS 102330Z 28012KT 25/M10 A2976 RMK A01 T02481103  RH  009%=      5-min Rain = 0
KARS 102335Z 28012KT 25/M10 A2976 RMK A01 T02491102  RH  009%=      5-min Rain = 0
KARS 102340Z 28008KT 25/M10 A2977 RMK A01 T02481100  RH  009%=      5-min Rain = 0
KARS 102345Z 27011KT 25/M10 A2977 RMK A01 T02461102  RH  009%=      5-min Rain = 0
KARS 102350Z 27011KT 25/M10 A2977 RMK A01 T02451103  RH  009%=      5-min Rain = 0
KARS 102355Z 27011KT 24/M10 A2977 RMK A01 T02421101  RH  009%=      5-min Rain = 0
KARS 110000Z 28010KT 24/M10 A2977 RMK A01 T02391099  RH  010%=      5-min Rain = 0
KARS 110005Z 27011KT 24/M10 A2978 RMK A01 T02371103  RH  009%=      5-min Rain = 0
KARS 110010Z 27010KT 24/M10 A2978 RMK A01 T02351101  RH  010%=      5-min Rain = 0
KARS 110015Z 27009KT 23/M10 A2978 RMK A01 T02311101  RH  010%=      5-min Rain = 0
KARS 110020Z 27008KT 23/M09 A2978 RMK A01 T02251093  RH  011%=      5-min Rain = 0
KARS 110025Z 27007KT 22/M09 A2978 RMK A01 T02181087  RH  012%=      5-min Rain = 0
KARS 110030Z 27007KT 21/M08 A2978 RMK A01 T02121084  RH  013%=      5-min Rain = 0
KARS 110035Z 27007KT 21/M08 A2978 RMK A01 T02081084  RH  013%=      5-min Rain = 0
KARS 110040Z 26007KT 20/M08 A2978 RMK A01 T02041084  RH  014%=      5-min Rain = 0
KARS 110045Z 26008KT 20/M09 A2978 RMK A01 T02011086  RH  014%=      5-min Rain = 0
KARS 110050Z 26008KT 20/M09 A2979 RMK A01 T01991091  RH  013%=      5-min Rain = 0
KARS 110055Z 26007KT 20/M09 A2979 RMK A01 T01961092  RH  013%=      5-min Rain = 0
KARS 110100Z 26008KT 19/M10 A2979 RMK A01 T01921095  RH  013%=      5-min Rain = 0
KARS 110105Z 26008KT 19/M10 A2979 RMK A01 T01891097  RH  013%=      5-min Rain = 0
KARS 110110Z 26008KT 19/M10 A2979 RMK A01 T01881096  RH  014%=      5-min Rain = 0
KARS 110115Z 26007KT 19/M09 A2979 RMK A01 T01861091  RH  014%=      5-min Rain = 0
KARS 110120Z 26007KT 18/M09 A2979 RMK A01 T01811086  RH  015%=      5-min Rain = 0
KARS 110125Z 26007KT 18/M08 A2979 RMK A01 T01771082  RH  016%=      5-min Rain = 0
KARS 110130Z 26007KT 18/M07 A298 RMK A01 T01751073  RH  018%=      5-min Rain = 0
KARS 110135Z 26008KT 17/M08 A298 RMK A01 T01721076  RH  018%=      5-min Rain = 0
KARS 110140Z 26008KT 17/M09 A298 RMK A01 T01701085  RH  017%=      5-min Rain = 0
KARS 110145Z 26008KT 17/M09 A298 RMK A01 T01741094  RH  015%=      5-min Rain = 0
KARS 110150Z 26008KT 18/M09 A2981 RMK A01 T01751094  RH  015%=      5-min Rain = 0
KARS 110155Z 26008KT 18/M10 A2981 RMK A01 T01751097  RH  015%=      5-min Rain = 0
KARS 110200Z 26007KT 18/M10 A2981 RMK A01 T01751097  RH  015%=      5-min Rain = 0
KARS 110205Z 26007KT 17/M09 A2981 RMK A01 T01741093  RH  015%=      5-min Rain = 0
KARS 110210Z 32007G13KT 17/M08 A2982 RMK A01 T01711076  RH  018%=      5-min Rain = 0
KARS 110215Z 35008KT 17/M10 A2982 RMK A01 T01711099  RH  015%=      5-min Rain = 0
KARS 110220Z 01009KT 18/M11 A2982 RMK A01 T01821109  RH  013%=      5-min Rain = 0
KARS 110225Z 01008KT 19/M11 A2982 RMK A01 T01911110  RH  012%=      5-min Rain = 0
KARS 110230Z 04009KT 19/M12 A2982 RMK A01 T01911115  RH  011%=      5-min Rain = 0
KARS 110235Z 03009KT 20/M12 A2982 RMK A01 T01951115  RH  011%=      5-min Rain = 0
KARS 110240Z 04008KT 19/M12 A2983 RMK A01 T01921115  RH  011%=      5-min Rain = 0
KARS 110245Z 03007KT 18/M11 A2983 RMK A01 T01821113  RH  012%=      5-min Rain = 0
KARS 110250Z 03009KT 17/M12 A2984 RMK A01 T01741115  RH  013%=      5-min Rain = 0
KARS 110255Z 04011KT 17/M12 A2984 RMK A01 T01701117  RH  013%=      5-min Rain = 0
KARS 110300Z 04012KT 17/M12 A2985 RMK A01 T01701115  RH  013%=      5-min Rain = 0
KARS 110305Z 04012KT 17/M11 A2985 RMK A01 T01731114  RH  013%=      5-min Rain = 0
KARS 110310Z 04014KT 18/M12 A2986 RMK A01 T01751115  RH  013%=      5-min Rain = 0
KARS 110315Z 06014KT 18/M12 A2986 RMK A01 T01761115  RH  013%=      5-min Rain = 0
KARS 110320Z 06013G19KT 18/M12 A2986 RMK A01 T01781115  RH  012%=      5-min Rain = 0
KARS 110325Z 07011KT 17/M11 A2986 RMK A01 T01731114  RH  013%=      5-min Rain = 0
KARS 110330Z 07011KT 18/M11 A2986 RMK A01 T01751113  RH  013%=      5-min Rain = 0
KARS 110335Z 06010KT 17/M11 A2987 RMK A01 T01711112  RH  013%=      5-min Rain = 0
KARS 110340Z 05008KT 17/M11 A2987 RMK A01 T01671111  RH  014%=      5-min Rain = 0
KARS 110345Z 04007KT 16/M11 A2988 RMK A01 T01621111  RH  014%=      5-min Rain = 0
KARS 110350Z 03007KT 16/M11 A2988 RMK A01 T01571110  RH  015%=      5-min Rain = 0
KARS 110355Z 00008KT 15/M11 A2988 RMK A01 T01481108  RH  016%=      5-min Rain = 0
KARS 110400Z 00009KT 14/M10 A2989 RMK A01 T01391104  RH  017%=      5-min Rain = 0
KARS 110405Z 02010KT 14/M11 A2989 RMK A01 T01371105  RH  018%=      5-min Rain = 0
KARS 110410Z 03011KT 14/M11 A2989 RMK A01 T01411107  RH  017%=      5-min Rain = 0
KARS 110415Z 02010KT 15/M11 A2989 RMK A01 T01451106  RH  017%=      5-min Rain = 0
KARS 110420Z 01011KT 14/M10 A299 RMK A01 T01431104  RH  017%=      5-min Rain = 0
KARS 110425Z 02013G18KT 14/M10 A299 RMK A01 T01441100  RH  017%=      5-min Rain = 0
KARS 110430Z 03016G21KT 16/M10 A299 RMK A01 T01621104  RH  015%=      5-min Rain = 0
KARS 110435Z 02014KT 16/M10 A2991 RMK A01 T01601100  RH  016%=      5-min Rain = 0
KARS 110440Z 01013KT 15/M10 A2991 RMK A01 T01451095  RH  018%=      5-min Rain = 0
KARS 110445Z 01012KT 14/M09 A2991 RMK A01 T01401093  RH  019%=      5-min Rain = 0
KARS 110450Z 01012KT 14/M09 A2991 RMK A01 T01371091  RH  020%=      5-min Rain = 0
KARS 110455Z 01014KT 14/M09 A2992 RMK A01 T01351090  RH  020%=      5-min Rain = 0
KARS 110500Z 01013KT 14/M09 A2992 RMK A01 T01391089  RH  020%=      5-min Rain = 0
KARS 110505Z 01014KT 14/M09 A2992 RMK A01 T01421089  RH  019%=      5-min Rain = 0
KARS 110510Z 01013KT 14/M09 A2992 RMK A01 T01431088  RH  019%=      5-min Rain = 0
KARS 110515Z 00011KT 14/M09 A2992 RMK A01 T01401086  RH  020%=      5-min Rain = 0
KARS 110520Z 36012KT 14/M09 A2992 RMK A01 T01371086  RH  020%=      5-min Rain = 0
KARS 110525Z 01012G18KT 14/M08 A2993 RMK A01 T01361079  RH  022%=      5-min Rain = 0
KARS 110530Z 02017KT 14/M05 A2993 RMK A01 T01441050  RH  026%=      5-min Rain = 0
KARS 110535Z 02015KT 15/M05 A2993 RMK A01 T01481048  RH  026%=      5-min Rain = 0
KARS 110540Z 02015G21KT 14/M05 A2994 RMK A01 T01441048  RH  026%=      5-min Rain = 0
KARS 110545Z 01016KT 14/M04 A2994 RMK A01 T01421039  RH  029%=      5-min Rain = 0
KARS 110550Z 01017G22KT 14/M03 A2995 RMK A01 T01401030  RH  031%=      5-min Rain = 0
KARS 110555Z 02020KT 14/M03 A2995 RMK A01 T01411030  RH  031%=      5-min Rain = 0

Page generated in 0.0095 seconds.